Time;durP1;ratioP1;P1;durP2;ratioP2;P2;SDS_P1;SDS_P2;PMS_P1;PMS_P2;Temp;Humidity;BMP_temperature;BMP_pressure;BME280_temperature;BME280_humidity;BME280_pressure;Samples;Min_cycle;Max_cycle;Signal;HPM_P1;HPM_P2
2021/06/19 00:00:48;;;;;;;10.77;10.07;;;24.70;99.90;;;;;;4938999;29;20190;-56
2021/06/19 00:03:13;;;;;;;11.30;10.63;;;24.70;99.90;;;;;;4945516;29;20201;-53
2021/06/19 00:05:40;;;;;;;12.50;11.53;;;24.60;99.90;;;;;;4944035;29;20946;-58
2021/06/19 00:08:08;;;;;;;11.40;10.70;;;24.60;99.90;;;;;;4934520;29;20189;-56
2021/06/19 00:10:34;;;;;;;11.50;10.70;;;24.60;99.90;;;;;;4953821;28;20920;-59
2021/06/19 00:12:59;;;;;;;11.67;10.97;;;24.60;99.90;;;;;;4943207;28;20508;-56
2021/06/19 00:15:25;;;;;;;11.70;11.00;;;24.60;99.90;;;;;;4949030;29;21013;-56
2021/06/19 00:17:51;;;;;;;11.07;10.37;;;24.60;99.90;;;;;;4940852;29;20233;-58
2021/06/19 00:20:19;;;;;;;10.60;9.90;;;24.60;99.90;;;;;;4939312;29;20189;-58
2021/06/19 00:22:45;;;;;;;11.00;10.20;;;24.50;99.90;;;;;;4953789;29;20185;-55
2021/06/19 00:25:12;;;;;;;11.17;10.47;;;24.60;99.90;;;;;;4945701;29;20524;-55
2021/06/19 00:27:39;;;;;;;11.30;10.33;;;24.60;99.90;;;;;;4953325;29;20524;-55
2021/06/19 00:30:06;;;;;;;11.03;10.30;;;24.60;99.90;;;;;;4948089;29;20492;-55
2021/06/19 00:32:32;;;;;;;11.53;10.73;;;24.60;99.90;;;;;;4932516;29;20579;-55
2021/06/19 00:34:58;;;;;;;10.40;9.80;;;24.50;99.90;;;;;;4938125;29;20473;-56
2021/06/19 00:37:23;;;;;;;11.40;10.60;;;24.50;99.90;;;;;;4948374;29;20676;-56
2021/06/19 00:39:49;;;;;;;11.17;10.40;;;24.40;99.90;;;;;;4949696;29;20277;-56
2021/06/19 00:42:19;;;;;;;11.90;11.10;;;24.40;99.90;;;;;;4941156;29;20197;-54
2021/06/19 00:44:45;;;;;;;11.27;10.50;;;24.50;99.90;;;;;;4939165;29;20193;-55
2021/06/19 00:47:11;;;;;;;11.47;10.67;;;24.50;99.90;;;;;;4944833;29;20432;-55
2021/06/19 00:49:36;;;;;;;11.10;10.40;;;24.50;99.90;;;;;;4936500;29;20268;-57
2021/06/19 00:52:02;;;;;;;11.60;10.80;;;24.60;99.90;;;;;;4941486;29;20197;-56
2021/06/19 00:54:28;;;;;;;10.87;10.17;;;24.60;99.90;;;;;;4946323;28;20220;-54
2021/06/19 00:56:54;;;;;;;11.23;10.53;;;24.60;99.90;;;;;;4954029;28;20519;-55
2021/06/19 00:59:20;;;;;;;11.53;10.73;;;24.60;99.90;;;;;;4936790;28;20193;-53
2021/06/19 01:01:46;;;;;;;11.20;10.50;;;24.60;99.90;;;;;;4943992;29;20416;-54
2021/06/19 01:04:11;;;;;;;11.30;10.50;;;24.60;99.90;;;;;;4939706;29;20438;-54
2021/06/19 01:06:37;;;;;;;11.10;10.30;;;24.50;99.90;;;;;;4935736;29;20190;-57
2021/06/19 01:09:06;;;;;;;10.87;10.10;;;24.50;99.90;;;;;;4934821;29;20605;-56
2021/06/19 01:11:32;;;;;;;10.53;9.83;;;24.50;99.90;;;;;;4940428;29;20257;-53
2021/06/19 01:13:59;;;;;;;11.77;10.97;;;24.50;99.90;;;;;;4944698;29;20449;-57
2021/06/19 01:16:24;;;;;;;11.60;10.60;;;24.40;99.90;;;;;;4934152;29;20489;-56
2021/06/19 01:18:50;;;;;;;12.37;11.23;;;24.40;99.90;;;;;;4949317;28;20488;-56
2021/06/19 01:21:17;;;;;;;11.43;10.73;;;24.30;99.90;;;;;;4941709;29;20193;-57
2021/06/19 01:23:44;;;;;;;11.10;10.40;;;24.30;99.90;;;;;;4944473;29;20546;-54
2021/06/19 01:26:30;;;;;;;12.00;11.20;;;24.30;99.90;;;;;;4941620;29;21685;-57
2021/06/19 01:28:58;;;;;;;11.33;10.50;;;24.30;99.90;;;;;;4942895;29;20433;-54
2021/06/19 01:31:24;;;;;;;12.13;11.33;;;24.30;99.90;;;;;;4939866;29;20962;-55
2021/06/19 01:33:50;;;;;;;11.00;10.37;;;24.20;99.90;;;;;;4940914;29;21145;-57
2021/06/19 01:36:18;;;;;;;10.27;9.67;;;24.20;99.90;;;;;;4940771;29;20430;-57
2021/06/19 01:38:49;;;;;;;11.23;10.43;;;24.20;99.90;;;;;;4936109;29;20445;-56
2021/06/19 01:41:16;;;;;;;11.53;10.83;;;24.20;99.90;;;;;;4941936;29;20434;-58
2021/06/19 01:43:43;;;;;;;11.80;10.90;;;24.20;99.90;;;;;;4941780;28;20444;-55
2021/06/19 01:46:09;;;;;;;12.50;11.20;;;24.20;99.90;;;;;;4937326;28;20425;-53
2021/06/19 01:48:35;;;;;;;11.10;10.40;;;24.10;99.90;;;;;;4934165;29;20577;-53
2021/06/19 01:51:00;;;;;;;11.47;10.67;;;24.00;99.90;;;;;;4916472;29;20533;-55
2021/06/19 01:53:26;;;;;;;11.57;10.70;;;24.00;99.90;;;;;;4932555;29;20611;-55
2021/06/19 01:55:51;;;;;;;10.90;10.10;;;24.00;99.90;;;;;;4934511;29;20205;-52
2021/06/19 01:58:18;;;;;;;11.17;10.47;;;23.90;99.90;;;;;;4935443;29;20629;-56
2021/06/19 02:00:43;;;;;;;10.87;10.17;;;23.80;99.90;;;;;;4933193;29;20801;-56
2021/06/19 02:03:09;;;;;;;11.47;10.77;;;23.80;99.90;;;;;;4935466;29;20444;-54
2021/06/19 02:05:35;;;;;;;11.50;10.60;;;23.70;99.90;;;;;;4938337;29;20189;-53
2021/06/19 02:08:04;;;;;;;12.23;11.47;;;23.70;99.90;;;;;;4938151;29;20185;-54
2021/06/19 02:10:33;;;;;;;11.40;10.50;;;23.70;99.90;;;;;;4949473;29;20445;-55
2021/06/19 02:13:00;;;;;;;10.93;10.23;;;23.70;99.90;;;;;;4944213;29;20442;-52
2021/06/19 02:15:26;;;;;;;11.77;10.87;;;23.70;99.90;;;;;;4933604;29;20472;-55
2021/06/19 02:17:52;;;;;;;11.90;11.00;;;23.70;99.90;;;;;;4939416;28;20472;-55
2021/06/19 02:20:19;;;;;;;12.20;11.13;;;23.80;99.90;;;;;;4937623;29;20273;-54
2021/06/19 02:22:44;;;;;;;11.53;10.73;;;23.80;99.90;;;;;;4933863;29;20429;-54
2021/06/19 02:25:12;;;;;;;11.37;10.67;;;23.80;99.90;;;;;;4934959;29;20442;-56
2021/06/19 02:27:48;;;;;;;11.80;11.00;;;23.70;99.90;;;;;;4945412;29;20553;-54
2021/06/19 02:30:15;;;;;;;11.70;10.90;;;23.70;99.90;;;;;;4934184;29;20456;-53
2021/06/19 02:32:41;;;;;;;11.47;10.77;;;23.70;99.90;;;;;;4934037;29;20449;-53
2021/06/19 02:35:07;;;;;;;11.67;10.87;;;23.70;99.90;;;;;;4937246;29;20503;-55
2021/06/19 02:37:33;;;;;;;11.83;11.13;;;23.70;99.90;;;;;;4940605;28;20547;-55
2021/06/19 02:39:58;;;;;;;11.00;10.30;;;23.70;99.90;;;;;;4939043;29;20444;-54
2021/06/19 02:42:24;;;;;;;12.20;11.40;;;23.80;99.90;;;;;;4934906;29;20490;-54
2021/06/19 02:44:49;;;;;;;12.33;11.23;;;23.80;99.90;;;;;;4936453;29;20715;-56
2021/06/19 02:47:16;;;;;;;11.97;11.03;;;23.70;99.90;;;;;;4937886;29;20182;-55
2021/06/19 02:49:41;;;;;;;11.40;10.50;;;23.70;99.90;;;;;;4947730;29;20220;-55
2021/06/19 02:52:08;;;;;;;11.67;10.87;;;23.70;99.90;;;;;;4947044;29;20951;-56
2021/06/19 02:54:34;;;;;;;11.90;11.20;;;23.70;99.90;;;;;;4972370;28;20220;-56
2021/06/19 02:56:59;;;;;;;11.50;10.80;;;23.70;99.90;;;;;;4966764;28;20428;-55
2021/06/19 02:59:25;;;;;;;12.03;11.23;;;23.70;99.90;;;;;;4951548;29;20200;-55
2021/06/19 03:01:51;;;;;;;12.77;11.97;;;23.70;99.90;;;;;;4958667;28;20980;-57
2021/06/19 03:04:17;;;;;;;11.67;10.93;;;23.60;99.90;;;;;;4961089;28;20240;-54
2021/06/19 03:06:43;;;;;;;11.83;10.93;;;23.60;99.90;;;;;;4937550;29;20425;-52
2021/06/19 03:09:09;;;;;;;12.40;11.50;;;23.60;99.90;;;;;;4954719;28;21098;-55
2021/06/19 03:11:35;;;;;;;11.50;10.80;;;23.60;99.90;;;;;;4956965;29;20798;-56
2021/06/19 03:14:00;;;;;;;12.10;11.30;;;23.70;99.90;;;;;;4938567;29;20444;-53
2021/06/19 03:16:26;;;;;;;11.93;11.03;;;23.70;99.90;;;;;;4939621;29;20213;-52
2021/06/19 03:18:52;;;;;;;11.77;10.97;;;23.50;99.90;;;;;;4927608;29;20236;-53
2021/06/19 03:21:17;;;;;;;11.10;10.40;;;23.50;99.90;;;;;;4922076;29;20194;-55
2021/06/19 03:23:43;;;;;;;11.97;11.00;;;23.40;99.90;;;;;;4926240;29;20193;-54
2021/06/19 03:26:08;;;;;;;11.80;11.00;;;23.40;99.90;;;;;;4932012;29;20190;-53
2021/06/19 03:28:34;;;;;;;12.40;11.33;;;23.40;99.90;;;;;;4921113;29;20241;-50
2021/06/19 03:30:59;;;;;;;11.80;11.00;;;23.40;99.90;;;;;;4917993;29;20205;-53
2021/06/19 03:33:25;;;;;;;12.20;11.23;;;23.40;99.90;;;;;;4929878;29;20186;-53
2021/06/19 03:35:50;;;;;;;11.50;10.80;;;23.30;99.90;;;;;;4929098;29;20673;-53
2021/06/19 03:38:16;;;;;;;11.77;10.90;;;23.30;99.90;;;;;;4924200;29;20197;-55
2021/06/19 03:40:41;;;;;;;11.77;11.07;;;23.30;99.90;;;;;;4916928;29;20186;-54
2021/06/19 03:43:07;;;;;;;12.73;11.93;;;23.20;99.90;;;;;;4923263;29;20184;-53
2021/06/19 03:45:37;;;;;;;11.33;10.53;;;23.30;99.90;;;;;;4925757;29;20650;-50
2021/06/19 03:48:04;;;;;;;12.00;11.20;;;23.30;99.90;;;;;;4922280;29;20281;-55
2021/06/19 03:50:30;;;;;;;11.37;10.57;;;23.20;99.90;;;;;;4916789;29;20785;-56
2021/06/19 03:52:58;;;;;;;11.40;10.60;;;23.20;99.90;;;;;;4932454;29;20456;-51
2021/06/19 03:55:26;;;;;;;11.00;10.20;;;23.30;99.90;;;;;;4935459;29;20464;-55
2021/06/19 03:57:56;;;;;;;11.67;10.83;;;23.30;99.90;;;;;;4928102;29;20518;-55
2021/06/19 04:00:22;;;;;;;11.40;10.60;;;23.30;99.90;;;;;;4916326;29;20476;-56
2021/06/19 04:02:48;;;;;;;12.37;11.47;;;23.20;99.90;;;;;;4918094;29;20433;-55
2021/06/19 04:05:15;;;;;;;11.90;11.20;;;23.20;99.90;;;;;;4916964;29;20241;-51
2021/06/19 04:07:41;;;;;;;12.30;11.30;;;23.10;99.90;;;;;;4935154;29;20177;-55
2021/06/19 04:10:08;;;;;;;11.50;10.70;;;23.10;99.90;;;;;;4917879;29;20454;-55
2021/06/19 04:12:34;;;;;;;11.97;11.07;;;23.10;99.90;;;;;;4928810;29;20912;-56
2021/06/19 04:15:00;;;;;;;12.60;11.70;;;23.10;99.90;;;;;;4920868;29;20472;-55
2021/06/19 04:17:26;;;;;;;11.90;11.20;;;23.00;1.00;;;;;;4929324;28;20543;-56
2021/06/19 04:19:51;;;;;;;11.10;10.40;;;23.00;1.00;;;;;;4944367;28;20459;-56
2021/06/19 04:22:17;;;;;;;12.60;11.80;;;23.00;1.00;;;;;;4946452;28;20625;-53
2021/06/19 04:24:43;;;;;;;11.60;10.80;;;23.10;1.00;;;;;;4936410;28;20280;-52
2021/06/19 04:27:15;;;;;;;12.03;11.00;;;23.10;1.00;;;;;;4953818;29;20208;-56
2021/06/19 04:29:41;;;;;;;12.60;11.70;;;23.20;1.00;;;;;;4933616;29;20211;-52
2021/06/19 04:32:07;;;;;;;11.57;10.70;;;23.20;1.00;;;;;;4955629;28;20441;-53
2021/06/19 04:34:32;;;;;;;11.50;10.80;;;23.20;1.00;;;;;;4940163;29;20575;-56
2021/06/19 04:36:58;;;;;;;12.23;11.43;;;23.20;1.00;;;;;;4937328;28;20533;-54
2021/06/19 04:39:23;;;;;;;12.57;11.77;;;23.30;1.00;;;;;;4942222;29;20547;-56
2021/06/19 04:42:01;;;;;;;12.80;11.90;;;23.30;1.00;;;;;;4944373;29;20215;-56
2021/06/19 04:44:41;;;;;;;12.00;11.20;;;23.40;1.00;;;;;;4934367;29;20299;-56
2021/06/19 04:47:08;;;;;;;11.33;10.43;;;23.50;1.00;;;;;;4940737;29;20491;-53
2021/06/19 04:49:33;;;;;;;12.50;11.80;;;23.50;1.00;;;;;;4936498;29;20449;-56
2021/06/19 04:51:59;;;;;;;11.83;10.83;;;23.60;1.00;;;;;;4934775;29;20434;-55
2021/06/19 04:54:25;;;;;;;12.80;11.80;;;23.60;1.00;;;;;;4951181;29;20223;-53
2021/06/19 04:56:50;;;;;;;11.90;11.10;;;23.70;1.00;;;;;;4951514;29;20184;-51
2021/06/19 04:59:16;;;;;;;12.33;11.60;;;23.70;1.00;;;;;;4944415;29;20197;-52
2021/06/19 05:01:42;;;;;;;11.70;10.80;;;23.80;1.00;;;;;;4948722;28;20276;-57
2021/06/19 05:04:07;;;;;;;11.77;10.93;;;23.80;1.00;;;;;;4945015;28;20268;-54
2021/06/19 05:06:35;;;;;;;12.47;11.57;;;23.80;1.00;;;;;;4939619;29;20201;-55
2021/06/19 05:09:00;;;;;;;10.93;10.23;;;23.80;1.00;;;;;;4935001;29;20221;-55
2021/06/19 05:11:26;;;;;;;12.50;11.60;;;23.80;1.00;;;;;;4933000;29;20932;-54
2021/06/19 05:13:52;;;;;;;12.03;11.23;;;23.90;1.00;;;;;;4937749;29;20202;-55
2021/06/19 05:16:17;;;;;;;11.70;10.90;;;24.00;1.00;;;;;;4935792;28;20300;-53
2021/06/19 05:18:43;;;;;;;12.13;11.33;;;24.00;1.00;;;;;;4947503;28;20325;-51
2021/06/19 05:21:08;;;;;;;12.17;11.37;;;24.00;1.00;;;;;;4939249;28;20187;-53
2021/06/19 05:23:34;;;;;;;11.50;10.80;;;24.10;1.00;;;;;;4937590;29;20194;-53
2021/06/19 05:25:59;;;;;;;12.37;11.47;;;24.10;1.00;;;;;;4932954;29;20542;-52
2021/06/19 05:28:26;;;;;;;11.77;10.93;;;24.20;1.00;;;;;;4936899;29;20194;-50
2021/06/19 05:30:51;;;;;;;11.47;10.50;;;24.20;1.00;;;;;;4939751;29;20623;-53
2021/06/19 05:33:17;;;;;;;11.50;10.70;;;24.30;1.00;;;;;;4936246;29;20449;-55
2021/06/19 05:35:43;;;;;;;11.63;10.77;;;24.40;1.00;;;;;;4932778;29;20276;-56
2021/06/19 05:38:09;;;;;;;11.00;10.30;;;24.50;99.90;;;;;;4937103;29;20441;-51
2021/06/19 05:40:34;;;;;;;12.90;12.10;;;24.50;99.90;;;;;;4933728;29;20190;-53
2021/06/19 05:43:00;;;;;;;12.20;11.33;;;24.60;99.90;;;;;;4939627;29;20193;-56
2021/06/19 05:45:25;;;;;;;11.90;11.20;;;24.60;99.90;;;;;;4933903;29;20252;-55
2021/06/19 05:47:51;;;;;;;12.43;11.53;;;24.70;99.90;;;;;;4933699;29;20288;-55
2021/06/19 05:50:17;;;;;;;12.70;11.90;;;24.60;99.90;;;;;;4936733;29;20197;-50
2021/06/19 05:52:43;;;;;;;11.77;11.07;;;24.70;99.90;;;;;;4939191;29;20194;-53
2021/06/19 05:55:09;;;;;;;11.90;11.10;;;24.80;99.90;;;;;;4939710;29;20569;-51
2021/06/19 05:57:35;;;;;;;13.07;11.90;;;24.90;99.90;;;;;;4938972;29;20189;-54
2021/06/19 06:00:01;;;;;;;12.30;11.60;;;24.90;99.90;;;;;;4949155;28;20445;-55
2021/06/19 06:02:26;;;;;;;12.33;11.43;;;25.00;99.90;;;;;;4935223;29;20443;-54
2021/06/19 06:04:52;;;;;;;11.50;10.80;;;25.10;99.90;;;;;;4933311;28;20297;-54
2021/06/19 06:07:18;;;;;;;13.10;12.10;;;25.10;99.90;;;;;;4921700;29;20209;-56
2021/06/19 06:09:43;;;;;;;12.07;11.27;;;25.20;99.90;;;;;;4940248;29;20197;-55
2021/06/19 06:12:09;;;;;;;12.10;11.30;;;25.30;99.90;;;;;;4932089;29;20253;-55
2021/06/19 06:14:36;;;;;;;11.13;10.43;;;25.40;99.90;;;;;;4939019;29;20313;-56
2021/06/19 06:17:02;;;;;;;12.73;11.93;;;25.40;99.90;;;;;;4932676;29;20452;-54
2021/06/19 06:19:27;;;;;;;12.50;11.60;;;25.50;99.90;;;;;;4936644;29;20482;-56
2021/06/19 06:21:53;;;;;;;12.83;12.03;;;25.50;99.90;;;;;;4933241;29;20294;-55
2021/06/19 06:24:19;;;;;;;11.77;11.07;;;25.60;99.90;;;;;;4935566;29;20200;-55
2021/06/19 06:26:45;;;;;;;12.63;11.63;;;25.70;99.90;;;;;;4940010;29;20448;-58
2021/06/19 06:29:11;;;;;;;12.33;11.60;;;25.80;99.90;;;;;;4944519;29;20197;-56
2021/06/19 06:31:36;;;;;;;12.80;12.00;;;25.80;99.90;;;;;;4937247;29;20209;-56
2021/06/19 06:34:02;;;;;;;13.13;12.33;;;25.90;99.90;;;;;;4916146;29;20193;-56
2021/06/19 06:36:28;;;;;;;12.83;11.83;;;25.90;99.90;;;;;;4931699;29;20887;-55
2021/06/19 06:38:53;;;;;;;12.70;11.80;;;26.00;99.90;;;;;;4937322;28;20240;-52
2021/06/19 06:41:19;;;;;;;12.60;11.80;;;26.10;99.90;;;;;;4944898;29;20228;-52
2021/06/19 06:43:45;;;;;;;12.30;11.53;;;26.20;99.90;;;;;;4934196;29;20713;-54
2021/06/19 06:46:10;;;;;;;12.17;11.40;;;26.20;99.90;;;;;;4949702;28;20276;-54
2021/06/19 06:48:36;;;;;;;12.37;11.57;;;26.20;99.90;;;;;;4937208;28;20292;-57
2021/06/19 06:51:01;;;;;;;12.60;11.80;;;26.30;99.90;;;;;;4946574;28;20265;-55
2021/06/19 06:53:27;;;;;;;12.60;11.70;;;26.30;99.90;;;;;;4936565;28;20299;-54
2021/06/19 06:55:52;;;;;;;12.50;11.50;;;26.50;99.90;;;;;;4940062;28;20215;-53
2021/06/19 06:58:18;;;;;;;12.80;12.00;;;26.50;99.90;;;;;;4942604;28;20201;-55
2021/06/19 07:00:44;;;;;;;12.13;11.43;;;26.60;99.90;;;;;;4939974;28;20185;-51
2021/06/19 07:03:09;;;;;;;13.00;12.10;;;26.60;99.90;;;;;;4942641;28;20185;-54
2021/06/19 07:05:35;;;;;;;13.00;12.20;;;26.80;99.90;;;;;;4946669;28;20535;-55
2021/06/19 07:08:00;;;;;;;13.60;12.37;;;26.80;99.90;;;;;;4946010;28;20189;-54
2021/06/19 07:10:26;;;;;;;12.30;11.50;;;26.90;99.90;;;;;;4942953;28;20707;-53
2021/06/19 07:12:52;;;;;;;12.50;11.50;;;27.00;99.90;;;;;;4938650;28;20280;-51
2021/06/19 07:15:18;;;;;;;12.40;11.70;;;27.10;99.90;;;;;;4942633;28;20232;-53
2021/06/19 07:17:45;;;;;;;12.70;11.70;;;27.20;99.90;;;;;;4931648;28;20221;-51
2021/06/19 07:20:12;;;;;;;11.57;10.73;;;27.30;99.90;;;;;;4934389;29;20785;-51
2021/06/19 07:22:38;;;;;;;11.33;10.63;;;27.50;99.90;;;;;;4932393;28;20450;-54
2021/06/19 07:25:05;;;;;;;12.30;11.50;;;27.60;99.90;;;;;;4943017;29;20460;-50
2021/06/19 07:27:31;;;;;;;13.90;12.70;;;27.70;99.90;;;;;;4930140;29;20476;-53
2021/06/19 07:29:57;;;;;;;11.70;11.00;;;27.90;99.90;;;;;;4930893;29;20433;-53
2021/06/19 07:32:23;;;;;;;12.40;11.60;;;27.90;99.90;;;;;;4931081;29;20875;-53
2021/06/19 07:34:49;;;;;;;12.67;11.77;;;28.00;99.90;;;;;;4930957;29;20477;-51
2021/06/19 07:37:14;;;;;;;12.37;11.57;;;28.10;99.90;;;;;;4930588;29;20437;-53
2021/06/19 07:39:40;;;;;;;12.07;11.27;;;28.20;99.90;;;;;;4930808;29;20323;-50
2021/06/19 07:42:06;;;;;;;12.23;11.47;;;28.30;99.90;;;;;;4936024;29;20182;-54
2021/06/19 07:44:32;;;;;;;13.37;12.27;;;28.40;99.90;;;;;;4934908;29;20200;-52
2021/06/19 07:46:58;;;;;;;13.20;12.20;;;28.60;99.90;;;;;;4939305;28;20436;-50
2021/06/19 07:49:26;;;;;;;13.23;12.13;;;28.70;99.90;;;;;;4939233;29;20197;-51
2021/06/19 07:51:51;;;;;;;12.13;11.33;;;28.80;99.90;;;;;;4937078;29;20432;-52
2021/06/19 07:54:17;;;;;;;11.57;10.87;;;28.90;99.90;;;;;;4941356;29;20532;-54
2021/06/19 07:56:43;;;;;;;13.27;12.37;;;29.10;99.90;;;;;;4937067;29;20189;-54
2021/06/19 07:59:08;;;;;;;12.43;11.63;;;29.10;99.90;;;;;;4948506;29;20629;-56
2021/06/19 08:01:34;;;;;;;12.93;12.10;;;29.30;99.90;;;;;;4927396;29;20577;-56
2021/06/19 08:03:59;;;;;;;13.00;12.10;;;29.40;99.90;;;;;;4951552;28;20200;-56
2021/06/19 08:06:25;;;;;;;11.57;10.77;;;29.50;99.90;;;;;;4948767;29;20566;-54
2021/06/19 08:08:54;;;;;;;12.30;11.27;;;29.70;99.90;;;;;;4935045;29;20622;-55
2021/06/19 08:11:21;;;;;;;13.20;12.30;;;29.90;99.90;;;;;;4941905;29;20193;-52
2021/06/19 08:13:46;;;;;;;12.77;11.90;;;30.10;99.90;;;;;;4943290;29;20433;-55
2021/06/19 08:16:15;;;;;;;12.50;11.70;;;30.20;99.90;;;;;;4934345;29;20472;-53
2021/06/19 08:18:41;;;;;;;13.13;12.23;;;30.30;99.90;;;;;;4939866;29;20552;-54
2021/06/19 08:21:07;;;;;;;13.93;13.03;;;30.50;99.90;;;;;;4947209;29;20487;-54
2021/06/19 08:23:32;;;;;;;12.60;11.80;;;30.60;99.90;;;;;;4953515;29;20251;-52
2021/06/19 08:25:58;;;;;;;12.27;11.57;;;30.70;99.90;;;;;;4953071;28;20189;-56
2021/06/19 08:28:24;;;;;;;13.07;12.00;;;30.90;99.90;;;;;;4953316;29;20271;-54
2021/06/19 08:30:49;;;;;;;12.60;11.80;;;31.10;99.90;;;;;;4953765;29;20557;-54
2021/06/19 08:33:15;;;;;;;12.83;11.87;;;31.20;99.90;;;;;;4952937;29;20189;-55
2021/06/19 08:35:40;;;;;;;12.63;11.83;;;31.30;99.90;;;;;;4953922;29;20213;-55
2021/06/19 08:38:06;;;;;;;11.80;11.20;;;31.50;99.90;;;;;;4948741;29;20210;-52
2021/06/19 08:40:32;;;;;;;12.93;12.13;;;31.60;99.90;;;;;;4934762;29;20299;-54
2021/06/19 08:42:57;;;;;;;12.30;11.60;;;31.70;99.90;;;;;;4933841;29;20269;-54
2021/06/19 08:45:24;;;;;;;12.73;12.03;;;31.90;99.90;;;;;;4934328;29;20256;-55
2021/06/19 08:47:50;;;;;;;12.90;12.20;;;32.00;99.90;;;;;;4952607;28;20196;-56
2021/06/19 08:50:16;;;;;;;13.40;12.60;;;32.20;99.90;;;;;;4953656;29;20880;-50
2021/06/19 08:52:43;;;;;;;12.23;11.43;;;32.20;99.90;;;;;;4952540;29;20248;-56
2021/06/19 08:55:13;;;;;;;12.90;12.03;;;32.40;99.90;;;;;;4958669;28;20506;-55
2021/06/19 08:57:39;;;;;;;12.90;12.10;;;32.40;99.90;;;;;;4944784;28;20441;-56
2021/06/19 09:00:08;;;;;;;12.77;12.07;;;32.70;99.90;;;;;;4942317;28;21268;-52
2021/06/19 09:02:34;;;;;;;12.93;12.13;;;32.90;99.90;;;;;;4935525;29;20192;-56
2021/06/19 09:05:12;;;;;;;12.60;11.80;;;33.10;99.90;;;;;;4946213;28;20449;-54
2021/06/19 09:07:48;;;;;;;12.57;11.77;;;33.50;99.90;;;;;;4935487;29;20684;-55
2021/06/19 09:10:16;;;;;;;12.40;11.50;;;33.70;99.90;;;;;;4916714;29;20445;-53
2021/06/19 09:13:09;;;;;;;12.70;11.80;;;34.00;99.90;;;;;;4936078;29;20445;-53
2021/06/19 09:15:38;;;;;;;12.63;11.93;;;34.30;99.90;;;;;;4933865;29;20457;-52
2021/06/19 09:18:20;;;;;;;14.20;13.20;;;34.60;99.90;;;;;;4940605;29;20476;-57
2021/06/19 09:20:52;;;;;;;12.90;12.20;;;34.90;99.90;;;;;;4943463;29;20422;-56
2021/06/19 09:23:46;;;;;;;12.47;11.77;;;35.20;99.90;;;;;;4941896;29;20464;-56
2021/06/19 09:26:16;;;;;;;13.50;12.73;;;35.70;99.90;;;;;;4919066;29;20962;-57
2021/06/19 09:29:10;;;;;;;12.80;12.10;;;36.00;99.90;;;;;;4934755;29;20464;-56
2021/06/19 09:31:46;;;;;;;12.50;11.80;;;36.30;99.90;;;;;;4952027;29;20491;-52
2021/06/19 09:34:18;;;;;;;13.20;12.40;;;36.50;99.90;;;;;;4952325;29;20409;-56
2021/06/19 09:36:48;;;;;;;13.93;13.13;;;37.00;99.90;;;;;;4951841;29;20440;-54
2021/06/19 09:39:17;;;;;;;12.90;12.20;;;37.70;99.90;;;;;;4952063;29;20481;-56
2021/06/19 09:41:47;;;;;;;12.47;11.77;;;38.40;99.90;;;;;;4951459;29;20790;-53
2021/06/19 09:44:14;;;;;;;12.80;12.10;;;38.70;99.90;;;;;;4951698;29;20868;-56
2021/06/19 09:46:39;;;;;;;12.47;11.77;;;39.30;99.90;;;;;;4952550;29;20920;-56
2021/06/19 09:49:16;;;;;;;12.40;11.80;;;39.90;99.90;;;;;;4952459;29;20420;-55
2021/06/19 09:51:50;;;;;;;13.13;12.40;;;40.00;99.90;;;;;;4951964;29;20443;-54
2021/06/19 09:54:17;;;;;;;12.30;11.50;;;40.50;99.90;;;;;;4951886;29;20476;-56
2021/06/19 09:56:49;;;;;;;13.10;12.30;;;41.10;99.90;;;;;;4937940;29;20838;-57
2021/06/19 09:59:19;;;;;;;12.47;11.77;;;41.70;99.90;;;;;;4952264;29;20183;-54
2021/06/19 10:01:44;;;;;;;13.00;12.20;;;41.60;99.90;;;;;;4951499;29;20451;-56
2021/06/19 10:04:15;;;;;;;11.60;11.03;;;41.70;99.90;;;;;;4954550;28;20173;-56
2021/06/19 10:06:41;;;;;;;12.93;12.33;;;41.10;99.90;;;;;;4948293;28;20229;-56
2021/06/19 10:09:06;;;;;;;12.00;11.40;;;41.00;99.90;;;;;;4944677;28;20422;-56
2021/06/19 10:11:32;;;;;;;13.30;12.40;;;41.30;99.90;;;;;;4937361;29;20213;-56
2021/06/19 10:14:00;;;;;;;12.83;12.10;;;41.30;99.90;;;;;;4932837;29;20278;-57
2021/06/19 10:16:28;;;;;;;12.23;11.63;;;41.60;99.90;;;;;;4935692;29;20185;-55
2021/06/19 10:18:54;;;;;;;13.30;12.60;;;42.20;99.90;;;;;;4932525;29;20465;-57
2021/06/19 10:21:22;;;;;;;12.53;11.93;;;43.00;99.90;;;;;;4941553;28;20855;-58
2021/06/19 10:23:48;;;;;;;12.45;11.80;;;43.20;99.90;;;;;;4951865;29;20416;-58
2021/06/19 10:26:14;;;;;;;12.75;12.05;;;43.50;99.90;;;;;;4933579;29;20185;-58
2021/06/19 10:28:45;;;;;;;12.40;11.80;;;43.10;99.90;;;;;;4933506;29;20192;-57
2021/06/19 10:31:11;;;;;;;11.67;11.07;;;42.50;99.90;;;;;;4943678;29;20268;-58
2021/06/19 10:33:37;;;;;;;12.03;11.33;;;43.00;99.90;;;;;;4932879;29;20564;-58
2021/06/19 10:36:06;;;;;;;12.10;11.40;;;43.60;99.90;;;;;;4933670;29;20209;-58
2021/06/19 10:38:44;;;;;;;12.97;12.07;;;43.80;99.90;;;;;;4941176;29;20184;-54
2021/06/19 10:41:10;;;;;;;12.23;11.67;;;43.70;99.90;;;;;;4947851;29;20455;-56
2021/06/19 10:43:44;;;;;;;12.17;11.27;;;43.70;99.90;;;;;;4932517;29;20524;-56
2021/06/19 10:46:29;;;;;;;12.40;11.70;;;43.90;99.90;;;;;;4932483;29;20702;-57
2021/06/19 10:48:55;;;;;;;12.23;11.53;;;44.10;99.90;;;;;;4932207;29;20413;-57
2021/06/19 10:51:26;;;;;;;13.27;12.53;;;44.20;99.90;;;;;;4934626;29;20424;-56
2021/06/19 10:54:06;;;;;;;14.00;13.30;;;44.70;99.90;;;;;;4941042;28;20296;-58
2021/06/19 10:56:50;;;;;;;12.97;12.37;;;44.50;99.90;;;;;;4934744;29;20428;-56
2021/06/19 10:59:18;;;;;;;13.03;12.33;;;44.20;99.90;;;;;;4932398;29;20421;-55
2021/06/19 11:01:44;;;;;;;13.45;12.75;;;44.40;99.90;;;;;;4932180;29;20508;-52
2021/06/19 11:04:38;;;;;;;13.97;13.27;;;43.90;99.90;;;;;;4944400;28;20220;-56
2021/06/19 11:07:09;;;;;;;13.60;12.90;;;42.40;99.90;;;;;;4931373;29;20329;-56
2021/06/19 11:09:43;;;;;;;13.20;12.57;;;41.80;99.90;;;;;;4932978;29;20422;-56
2021/06/19 11:12:29;;;;;;;13.40;12.70;;;41.60;99.90;;;;;;4936755;29;20489;-58
2021/06/19 11:15:05;;;;;;;14.30;13.50;;;42.00;99.90;;;;;;4934175;29;20535;-55
2021/06/19 11:17:33;;;;;;;14.00;13.17;;;42.60;99.90;;;;;;4938555;28;20438;-56
2021/06/19 11:20:05;;;;;;;13.87;13.17;;;43.20;99.90;;;;;;4951376;28;20417;-57
2021/06/19 11:22:35;;;;;;;14.30;13.50;;;43.40;99.90;;;;;;4942196;29;20440;-55
2021/06/19 11:25:28;;;;;;;12.87;12.17;;;43.50;99.90;;;;;;4954876;29;20483;-57
2021/06/19 11:27:57;;;;;;;13.10;12.40;;;43.20;99.90;;;;;;4953939;28;20443;-56
2021/06/19 11:30:35;;;;;;;13.57;12.87;;;43.20;99.90;;;;;;4955047;29;20400;-57
2021/06/19 11:33:15;;;;;;;13.23;12.53;;;43.30;99.90;;;;;;4954794;29;20514;-57
2021/06/19 11:35:41;;;;;;;14.27;13.30;;;43.50;99.90;;;;;;4954072;28;21254;-58
2021/06/19 11:38:07;;;;;;;14.02;13.23;;;43.50;99.90;;;;;;4935822;29;20397;-56
2021/06/19 11:40:36;;;;;;;13.65;12.95;;;43.20;99.90;;;;;;4935547;29;20711;-58
2021/06/19 11:43:06;;;;;;;13.80;13.10;;;43.30;99.90;;;;;;4941941;29;20934;-58
2021/06/19 11:45:33;;;;;;;13.50;12.80;;;43.30;99.90;;;;;;4954630;29;20401;-55
2021/06/19 11:48:11;;;;;;;12.73;12.07;;;43.90;99.90;;;;;;4953263;29;20652;-57
2021/06/19 11:50:41;;;;;;;13.60;12.70;;;44.00;99.90;;;;;;4954479;29;20408;-56
2021/06/19 11:53:23;;;;;;;13.35;12.65;;;43.70;99.90;;;;;;4954663;29;20467;-57
2021/06/19 11:55:48;;;;;;;13.77;13.17;;;43.50;99.90;;;;;;4950470;29;20220;-57
2021/06/19 11:58:14;;;;;;;14.33;13.60;;;43.10;99.90;;;;;;4950982;29;20420;-56
2021/06/19 12:00:55;;;;;;;13.23;12.37;;;42.40;99.90;;;;;;4954562;29;20302;-57
2021/06/19 12:03:22;;;;;;;14.13;13.27;;;41.60;99.90;;;;;;4944209;28;20658;-58
2021/06/19 12:05:48;;;;;;;13.27;12.50;;;41.10;99.90;;;;;;4962013;28;20450;-57
2021/06/19 12:08:14;;;;;;;14.03;13.13;;;40.40;99.90;;;;;;4948998;28;20437;-55
2021/06/19 12:10:40;;;;;;;13.10;12.40;;;39.80;99.90;;;;;;4936040;29;20421;-57
2021/06/19 12:13:07;;;;;;;13.03;12.33;;;39.40;99.90;;;;;;4946949;29;20197;-51
2021/06/19 12:15:34;;;;;;;13.70;12.73;;;38.80;99.90;;;;;;4953966;29;20232;-57
2021/06/19 12:18:01;;;;;;;13.70;12.90;;;38.60;99.90;;;;;;4948914;29;20468;-57
2021/06/19 12:20:27;;;;;;;13.67;12.77;;;38.50;99.90;;;;;;4942312;28;20451;-56
2021/06/19 12:22:53;;;;;;;13.50;12.47;;;39.30;99.90;;;;;;4951276;28;20460;-56
2021/06/19 12:25:32;;;;;;;12.43;11.73;;;40.20;99.90;;;;;;4945713;29;20468;-57
2021/06/19 12:27:58;;;;;;;12.23;11.53;;;40.90;99.90;;;;;;4935228;29;20442;-56
2021/06/19 12:30:23;;;;;;;11.73;11.00;;;41.80;99.90;;;;;;4938605;28;21017;-57